Time;durP1;ratioP1;P1;durP2;ratioP2;P2;SDS_P1;SDS_P2;PMS_P1;PMS_P2;Temp;Humidity;BMP_temperature;BMP_pressure;BME280_temperature;BME280_humidity;BME280_pressure;Samples;Min_cycle;Max_cycle;Signal;HPM_P1;HPM_P2
2022/11/18 00:03:18;;;;;;;7.75;5.10;;;;;;;;;;10328318;28;20386;-47
2022/11/18 00:08:19;;;;;;;13.82;5.07;;;;;;;;;;10327101;28;20022;-47
2022/11/18 00:18:39;;;;;;;9.35;5.18;;;;;;;;;;10327189;28;20494;-51
2022/11/18 00:23:40;;;;;;;10.25;4.70;;;;;;;;;;10327120;28;20030;-54
2022/11/18 00:28:41;;;;;;;11.32;4.88;;;;;;;;;;10327465;28;20052;-54
2022/11/18 00:33:41;;;;;;;12.73;5.55;;;;;;;;;;10326944;28;20061;-55
2022/11/18 00:38:42;;;;;;;8.98;5.28;;;;;;;;;;10326792;28;20026;-55
2022/11/18 00:43:43;;;;;;;11.02;5.30;;;;;;;;;;10327289;28;20031;-56
2022/11/18 00:48:43;;;;;;;16.90;4.97;;;;;;;;;;10334580;28;20457;-55
2022/11/18 00:53:44;;;;;;;8.35;5.03;;;;;;;;;;10335176;28;20038;-54
2022/11/18 00:58:44;;;;;;;8.32;5.13;;;;;;;;;;10334724;28;20094;-55
2022/11/18 01:03:45;;;;;;;10.48;4.90;;;;;;;;;;10334855;28;20031;-52
2022/11/18 01:08:46;;;;;;;6.05;4.40;;;;;;;;;;10334857;28;20037;-50
2022/11/18 01:13:51;;;;;;;13.40;4.80;;;;;;;;;;10334400;28;20045;-54
2022/11/18 01:18:52;;;;;;;9.05;4.80;;;;;;;;;;10333569;28;20497;-54
2022/11/18 01:23:53;;;;;;;8.27;4.60;;;;;;;;;;10333913;28;20398;-56
2022/11/18 01:28:56;;;;;;;7.88;4.10;;;;;;;;;;10334097;28;20027;-48
2022/11/18 01:33:57;;;;;;;7.40;4.57;;;;;;;;;;10332985;28;20270;-50
2022/11/18 01:38:57;;;;;;;6.28;4.35;;;;;;;;;;10333563;28;20258;-49
2022/11/18 01:44:05;;;;;;;13.55;4.55;;;;;;;;;;10332817;28;20076;-56
2022/11/18 01:49:10;;;;;;;12.60;4.85;;;;;;;;;;10332582;28;20124;-53
2022/11/18 01:54:18;;;;;;;7.95;3.80;;;;;;;;;;10331657;28;20105;-55
2022/11/18 01:59:24;;;;;;;9.45;4.47;;;;;;;;;;10331237;28;20044;-53
2022/11/18 02:04:26;;;;;;;10.00;4.43;;;;;;;;;;10331058;28;20034;-55
2022/11/18 02:09:27;;;;;;;5.85;4.20;;;;;;;;;;10330564;28;20260;-55
2022/11/18 02:14:36;;;;;;;8.18;4.35;;;;;;;;;;10331920;28;20158;-54
2022/11/18 02:20:08;;;;;;;4.22;3.83;;;;;;;;;;10330172;28;20419;-55
2022/11/18 02:25:23;;;;;;;9.32;3.80;;;;;;;;;;10331400;28;20026;-50
2022/11/18 02:30:24;;;;;;;5.55;4.68;;;;;;;;;;10330327;28;20061;-51
2022/11/18 02:35:41;;;;;;;9.13;4.28;;;;;;;;;;10331562;28;20513;-50
2022/11/18 02:40:48;;;;;;;4.90;3.75;;;;;;;;;;10329338;28;20026;-52
2022/11/18 02:45:54;;;;;;;11.90;4.25;;;;;;;;;;10329814;28;20058;-52
2022/11/18 02:50:57;;;;;;;4.38;3.63;;;;;;;;;;10328804;28;20038;-47
2022/11/18 02:55:58;;;;;;;5.53;4.00;;;;;;;;;;10329192;28;20030;-52
2022/11/18 03:01:01;;;;;;;5.13;3.42;;;;;;;;;;10330015;28;20033;-53
2022/11/18 03:06:07;;;;;;;5.05;3.63;;;;;;;;;;10329880;28;20500;-53
2022/11/18 03:11:15;;;;;;;5.40;4.00;;;;;;;;;;10327619;28;20178;-54
2022/11/18 03:16:28;;;;;;;4.57;3.88;;;;;;;;;;10329468;28;20030;-53
2022/11/18 03:21:41;;;;;;;5.07;4.00;;;;;;;;;;10326986;28;20037;-54
2022/11/18 03:26:53;;;;;;;6.82;4.10;;;;;;;;;;10328201;28;20049;-54
2022/11/18 03:32:09;;;;;;;4.40;3.45;;;;;;;;;;10310856;23;20066;-45
2022/11/18 03:37:14;;;;;;;7.75;3.53;;;;;;;;;;10293247;28;20443;-46
2022/11/18 03:42:27;;;;;;;8.07;3.83;;;;;;;;;;10327466;28;20031;-45
2022/11/18 03:47:34;;;;;;;5.65;3.60;;;;;;;;;;10327236;28;20586;-46
2022/11/18 03:52:36;;;;;;;3.83;3.25;;;;;;;;;;10327666;28;20061;-46
2022/11/18 03:57:50;;;;;;;6.63;3.72;;;;;;;;;;10328519;28;20030;-49
2022/11/18 04:02:51;;;;;;;4.65;3.70;;;;;;;;;;10327783;28;20501;-48
2022/11/18 04:07:58;;;;;;;6.50;2.90;;;;;;;;;;10327797;28;20029;-46
2022/11/18 04:13:09;;;;;;;5.90;3.47;;;;;;;;;;10326145;28;20037;-48
2022/11/18 04:18:10;;;;;;;4.03;3.25;;;;;;;;;;10325128;28;20049;-48
2022/11/18 04:23:10;;;;;;;4.22;3.15;;;;;;;;;;10327500;28;20409;-46
2022/11/18 04:28:11;;;;;;;3.65;3.28;;;;;;;;;;10327097;28;20138;-46
2022/11/18 04:33:11;;;;;;;5.32;3.55;;;;;;;;;;10327200;28;20049;-47
2022/11/18 04:38:12;;;;;;;4.63;3.58;;;;;;;;;;10327178;28;20030;-49
2022/11/18 04:43:13;;;;;;;4.22;3.55;;;;;;;;;;10327033;28;20028;-46
2022/11/18 04:48:14;;;;;;;6.05;3.22;;;;;;;;;;10326783;28;20035;-47
2022/11/18 04:53:15;;;;;;;3.80;2.95;;;;;;;;;;10327378;28;20114;-50
2022/11/18 04:58:15;;;;;;;4.20;3.22;;;;;;;;;;10326901;28;20501;-50
2022/11/18 05:03:16;;;;;;;4.07;3.00;;;;;;;;;;10327065;28;20462;-46
2022/11/18 05:08:17;;;;;;;3.25;2.92;;;;;;;;;;10326578;28;20498;-46
2022/11/18 05:13:17;;;;;;;4.25;3.17;;;;;;;;;;10326638;28;20093;-46
2022/11/18 05:18:18;;;;;;;5.15;2.95;;;;;;;;;;10326316;28;20026;-48
2022/11/18 05:23:18;;;;;;;3.55;2.85;;;;;;;;;;10326296;28;20030;-54
2022/11/18 05:28:20;;;;;;;5.22;3.95;;;;;;;;;;10326140;28;20045;-48
2022/11/18 05:33:20;;;;;;;3.58;3.20;;;;;;;;;;10331929;28;20438;-47
2022/11/18 05:38:21;;;;;;;4.68;3.15;;;;;;;;;;10333981;28;20109;-47
2022/11/18 05:43:21;;;;;;;4.05;2.90;;;;;;;;;;10333364;28;20358;-48
2022/11/18 05:48:22;;;;;;;4.47;2.80;;;;;;;;;;10332889;28;20478;-47
2022/11/18 05:53:24;;;;;;;4.88;3.38;;;;;;;;;;10332410;28;20547;-49
2022/11/18 05:58:24;;;;;;;3.58;3.10;;;;;;;;;;10332428;28;20032;-46
2022/11/18 06:03:29;;;;;;;6.60;3.20;;;;;;;;;;10332093;28;20026;-47
2022/11/18 06:08:36;;;;;;;3.90;3.33;;;;;;;;;;10331957;28;20037;-47
2022/11/18 06:13:48;;;;;;;3.33;2.70;;;;;;;;;;10330855;28;20061;-45
2022/11/18 06:18:49;;;;;;;4.93;3.30;;;;;;;;;;10332100;28;20026;-48
2022/11/18 06:23:50;;;;;;;3.05;2.60;;;;;;;;;;10331916;28;20018;-50
2022/11/18 06:28:50;;;;;;;18.80;2.95;;;;;;;;;;10330841;28;20576;-46
2022/11/18 06:33:51;;;;;;;5.85;2.85;;;;;;;;;;10331617;28;20019;-46
2022/11/18 06:38:51;;;;;;;14.57;4.55;;;;;;;;;;10329480;28;20034;-49
2022/11/18 06:43:52;;;;;;;10.10;4.20;;;;;;;;;;10329342;28;20096;-51
2022/11/18 06:48:53;;;;;;;10.95;4.75;;;;;;;;;;10330782;28;20030;-50
2022/11/18 06:53:53;;;;;;;6.90;4.50;;;;;;;;;;10329698;28;20529;-48
2022/11/18 06:58:57;;;;;;;9.57;4.55;;;;;;;;;;10328600;28;20109;-50
2022/11/18 07:03:58;;;;;;;6.57;4.53;;;;;;;;;;10328743;28;20022;-48
2022/11/18 07:09:05;;;;;;;9.80;4.82;;;;;;;;;;10328718;28;20529;-46
2022/11/18 07:14:08;;;;;;;11.43;5.18;;;;;;;;;;10329634;28;20018;-48
2022/11/18 07:19:12;;;;;;;6.03;4.07;;;;;;;;;;10329509;28;20106;-50
2022/11/18 07:24:15;;;;;;;16.83;4.85;;;;;;;;;;10329375;28;20114;-54
2022/11/18 07:29:15;;;;;;;9.02;4.15;;;;;;;;;;10329349;28;20065;-49
2022/11/18 07:34:16;;;;;;;19.25;5.35;;;;;;;;;;10329775;28;20033;-50
2022/11/18 07:39:17;;;;;;;6.43;4.88;;;;;;;;;;10329153;28;20045;-50
2022/11/18 07:44:17;;;;;;;8.07;4.75;;;;;;;;;;10328937;28;20041;-48
2022/11/18 07:49:18;;;;;;;6.90;4.80;;;;;;;;;;10329296;28;20037;-51
2022/11/18 07:54:19;;;;;;;5.68;4.60;;;;;;;;;;10328397;28;20030;-48
2022/11/18 07:59:19;;;;;;;4.65;4.13;;;;;;;;;;10328335;28;20064;-51
2022/11/18 08:04:20;;;;;;;5.75;4.55;;;;;;;;;;10328774;28;20386;-53
2022/11/18 08:09:20;;;;;;;5.32;4.22;;;;;;;;;;10327907;28;20085;-49
2022/11/18 08:14:22;;;;;;;8.07;4.93;;;;;;;;;;10328687;28;20042;-49
2022/11/18 08:19:23;;;;;;;4.68;4.22;;;;;;;;;;10327746;28;20471;-47
2022/11/18 08:24:24;;;;;;;6.72;4.10;;;;;;;;;;10327748;28;20037;-47
2022/11/18 08:29:24;;;;;;;4.20;3.80;;;;;;;;;;10327114;28;20054;-47
2022/11/18 08:34:25;;;;;;;10.15;4.45;;;;;;;;;;10327910;28;20030;-48
2022/11/18 08:39:25;;;;;;;8.15;4.53;;;;;;;;;;10327271;28;20026;-51
2022/11/18 08:44:26;;;;;;;6.80;5.28;;;;;;;;;;10327430;28;20038;-51
2022/11/18 08:49:27;;;;;;;5.38;4.22;;;;;;;;;;10327488;28;20034;-52
2022/11/18 08:54:28;;;;;;;4.40;4.00;;;;;;;;;;10327120;28;20035;-51
2022/11/18 08:59:28;;;;;;;6.00;4.28;;;;;;;;;;10327055;28;20034;-50
2022/11/18 09:04:29;;;;;;;9.25;5.25;;;;;;;;;;10327451;28;20033;-51
2022/11/18 09:09:29;;;;;;;6.55;4.82;;;;;;;;;;10334630;28;20069;-48
2022/11/18 09:14:30;;;;;;;8.40;4.45;;;;;;;;;;10334574;28;20470;-49
2022/11/18 09:19:31;;;;;;;7.38;4.80;;;;;;;;;;10334358;28;20031;-47
2022/11/18 09:24:32;;;;;;;10.27;4.65;;;;;;;;;;10333987;28;20022;-49
2022/11/18 09:29:33;;;;;;;5.40;4.80;;;;;;;;;;10333874;28;20085;-53
2022/11/18 09:34:34;;;;;;;6.18;4.78;;;;;;;;;;10334376;28;20040;-49
2022/11/18 09:39:36;;;;;;;5.88;4.50;;;;;;;;;;10333716;28;20058;-50
2022/11/18 09:45:15;;;;;;;5.25;4.60;;;;;;;;;;10333591;28;20398;-50
2022/11/18 09:50:21;;;;;;;6.53;4.93;;;;;;;;;;10333354;28;20027;-49
2022/11/18 09:55:22;;;;;;;7.00;4.45;;;;;;;;;;10333318;28;20030;-48
2022/11/18 10:00:27;;;;;;;6.72;5.05;;;;;;;;;;10332291;28;20046;-50
2022/11/18 10:05:38;;;;;;;6.97;4.75;;;;;;;;;;10331580;28;20471;-47
2022/11/18 10:11:16;;;;;;;7.03;4.78;;;;;;;;;;10332990;28;20030;-50
2022/11/18 10:16:45;;;;;;;4.45;4.05;;;;;;;;;;10331946;28;20149;-48
2022/11/18 10:22:15;;;;;;;;;;;;;;;;;;10332755;28;20028;-49
2022/11/18 10:27:17;;;;;;;5.78;4.38;;;;;;;;;;10331301;28;19917;-51
2022/11/18 10:32:19;;;;;;;5.35;4.05;;;;;;;;;;10331953;28;20116;-47
2022/11/18 10:37:29;;;;;;;5.13;4.30;;;;;;;;;;10331530;28;20026;-49
2022/11/18 10:42:45;;;;;;;5.63;4.00;;;;;;;;;;10331988;28;20022;-50
2022/11/18 10:48:08;;;;;;;6.50;4.40;;;;;;;;;;10330448;28;20089;-57
2022/11/18 10:53:34;;;;;;;5.45;4.20;;;;;;;;;;10330903;28;20058;-50
2022/11/18 10:58:40;;;;;;;6.00;4.18;;;;;;;;;;10330764;28;20022;-49
2022/11/18 11:03:50;;;;;;;4.53;4.00;;;;;;;;;;10328853;28;20034;-51
2022/11/18 11:09:12;;;;;;;6.40;4.38;;;;;;;;;;10330459;28;20054;-54
2022/11/18 11:14:23;;;;;;;6.28;4.25;;;;;;;;;;10328686;28;20030;-51
2022/11/18 11:19:34;;;;;;;5.15;4.25;;;;;;;;;;10330000;28;20026;-48
2022/11/18 11:24:34;;;;;;;6.20;4.32;;;;;;;;;;10328899;28;20042;-49
2022/11/18 11:30:34;;;;;;;12.27;4.10;;;;;;;;;;10329162;28;20043;-51
2022/11/18 11:36:20;;;;;;;6.47;4.47;;;;;;;;;;10318453;28;20043;-46
2022/11/18 11:41:25;;;;;;;8.68;4.43;;;;;;;;;;10329825;28;20049;-48
2022/11/18 11:52:59;;;;;;;5.30;4.50;;;;;;;;;;10328745;28;20250;-50
2022/11/18 11:58:30;;;;;;;9.18;4.60;;;;;;;;;;10328558;28;20375;-46
2022/11/18 12:03:43;;;;;;;9.15;5.47;;;;;;;;;;10328856;28;20062;-51
2022/11/18 12:09:30;;;;;;;8.35;4.93;;;;;;;;;;10328773;28;20117;-47
2022/11/18 12:14:45;;;;;;;7.45;4.90;;;;;;;;;;10328025;28;20037;-54
2022/11/18 12:19:45;;;;;;;8.23;5.47;;;;;;;;;;10326874;28;20026;-56
2022/11/18 12:24:46;;;;;;;8.95;5.50;;;;;;;;;;10327915;28;20031;-49
2022/11/18 12:29:49;;;;;;;8.40;4.68;;;;;;;;;;10327497;28;20050;-46
2022/11/18 12:35:04;;;;;;;7.53;5.43;;;;;;;;;;10327566;28;20481;-54
2022/11/18 12:40:07;;;;;;;7.60;5.57;;;;;;;;;;10328335;28;20038;-49
2022/11/18 12:45:39;;;;;;;8.40;5.65;;;;;;;;;;10335970;28;20169;-50
2022/11/18 12:50:48;;;;;;;7.85;5.35;;;;;;;;;;10335377;28;20470;-48
2022/11/18 12:55:48;;;;;;;;;;;;;;;;;;10336465;28;20033;-49
2022/11/18 13:00:52;;;;;;;6.32;5.13;;;;;;;;;;10335129;28;19953;-49
2022/11/18 13:06:01;;;;;;;7.78;5.22;;;;;;;;;;10335013;28;20351;-49
2022/11/18 13:27:55;;;;;;;7.38;5.88;;;;;;;;;;10334690;28;20026;-48
2022/11/18 13:32:58;;;;;;;7.28;5.60;;;;;;;;;;10333167;28;20046;-47
2022/11/18 13:38:00;;;;;;;7.90;5.78;;;;;;;;;;10333748;28;20517;-52
2022/11/18 13:43:01;;;;;;;6.47;5.35;;;;;;;;;;10333668;28;20042;-50
2022/11/18 13:48:08;;;;;;;6.40;5.15;;;;;;;;;;10333934;28;20378;-47
2022/11/18 13:53:37;;;;;;;8.30;5.72;;;;;;;;;;10331410;28;20035;-49
2022/11/18 13:58:50;;;;;;;6.30;5.28;;;;;;;;;;10332176;28;20515;-46
2022/11/18 14:04:02;;;;;;;8.07;5.28;;;;;;;;;;10331445;28;20061;-48
2022/11/18 14:09:17;;;;;;;5.78;5.18;;;;;;;;;;10330978;28;20495;-51
2022/11/18 14:14:32;;;;;;;7.25;5.13;;;;;;;;;;10332490;28;20116;-50
2022/11/18 14:19:34;;;;;;;7.05;5.10;;;;;;;;;;10332222;28;20037;-48
2022/11/18 14:24:35;;;;;;;8.05;5.65;;;;;;;;;;10330949;28;20073;-47
2022/11/18 14:29:36;;;;;;;8.07;6.03;;;;;;;;;;10331619;28;20122;-51
2022/11/18 14:34:36;;;;;;;7.82;5.25;;;;;;;;;;10331466;28;20034;-51
2022/11/18 14:39:37;;;;;;;13.95;5.47;;;;;;;;;;10331391;28;20026;-50
2022/11/18 14:44:37;;;;;;;9.23;5.35;;;;;;;;;;10331818;28;20313;-53
2022/11/18 14:49:38;;;;;;;5.65;4.80;;;;;;;;;;10330828;28;20026;-47
2022/11/18 14:54:38;;;;;;;8.15;5.05;;;;;;;;;;10331346;28;20030;-47
2022/11/18 14:59:39;;;;;;;6.22;5.07;;;;;;;;;;10330933;28;20023;-50
2022/11/18 15:04:40;;;;;;;6.05;5.05;;;;;;;;;;10329591;28;20034;-48
2022/11/18 15:09:41;;;;;;;6.00;4.85;;;;;;;;;;10330133;28;20038;-49
2022/11/18 15:14:41;;;;;;;6.80;4.90;;;;;;;;;;10330102;28;20110;-47
2022/11/18 15:19:42;;;;;;;9.60;4.40;;;;;;;;;;10329098;28;20547;-50
2022/11/18 15:24:43;;;;;;;6.43;4.65;;;;;;;;;;10328518;28;20467;-50
2022/11/18 15:29:43;;;;;;;6.85;4.30;;;;;;;;;;10327656;28;20050;-48
2022/11/18 15:34:44;;;;;;;9.52;4.88;;;;;;;;;;10328169;28;20019;-49
2022/11/18 15:39:45;;;;;;;7.10;4.72;;;;;;;;;;10329216;28;20026;-50
2022/11/18 15:44:45;;;;;;;6.88;4.15;;;;;;;;;;10327868;28;20032;-49
2022/11/18 15:49:46;;;;;;;6.00;4.53;;;;;;;;;;10328959;28;20030;-51
2022/11/18 15:54:46;;;;;;;6.05;4.18;;;;;;;;;;10328744;28;20046;-49
2022/11/18 15:59:47;;;;;;;4.38;3.90;;;;;;;;;;10328388;28;20030;-48
2022/11/18 16:04:49;;;;;;;7.53;4.38;;;;;;;;;;10328867;28;20050;-54
2022/11/18 16:20:28;;;;;;;;;;;;;;;;;;10328992;28;20035;-48
2022/11/18 16:25:28;;;;;;;5.25;4.25;;;;;;;;;;10327679;28;19913;-50
2022/11/18 16:35:48;;;;;;;9.68;4.18;;;;;;;;;;10328777;28;20038;-46
2022/11/18 16:40:56;;;;;;;5.90;4.40;;;;;;;;;;10327854;28;20030;-48
2022/11/18 16:45:56;;;;;;;5.13;4.20;;;;;;;;;;10327886;28;20038;-46
2022/11/18 16:51:18;;;;;;;6.88;4.93;;;;;;;;;;10327094;28;20371;-46
2022/11/18 16:56:21;;;;;;;6.85;4.97;;;;;;;;;;10327687;28;20027;-46
2022/11/18 17:01:21;;;;;;;5.63;4.85;;;;;;;;;;10325939;28;20038;-50
2022/11/18 17:06:23;;;;;;;5.85;4.68;;;;;;;;;;10327992;28;20489;-47
2022/11/18 17:11:24;;;;;;;6.75;5.32;;;;;;;;;;10326730;28;20117;-46
2022/11/18 17:16:25;;;;;;;6.55;5.05;;;;;;;;;;10326854;28;20023;-50
2022/11/18 17:21:28;;;;;;;8.57;5.20;;;;;;;;;;10327009;28;20058;-51
2022/11/18 17:26:28;;;;;;;6.65;5.28;;;;;;;;;;10326812;28;20026;-50
2022/11/18 17:31:29;;;;;;;8.50;5.25;;;;;;;;;;10333924;28;20097;-46
2022/11/18 17:36:29;;;;;;;6.43;4.78;;;;;;;;;;10332903;28;20053;-47
2022/11/18 17:46:49;;;;;;;7.43;5.13;;;;;;;;;;10332913;28;20035;-46
2022/11/18 17:51:50;;;;;;;6.22;5.25;;;;;;;;;;10332739;28;20026;-47
2022/11/18 17:56:51;;;;;;;7.82;5.20;;;;;;;;;;10333491;28;20018;-50
2022/11/18 18:01:52;;;;;;;7.78;5.18;;;;;;;;;;10330922;28;20061;-48
2022/11/18 18:06:53;;;;;;;7.43;5.28;;;;;;;;;;10332559;28;20034;-48
2022/11/18 18:11:54;;;;;;;7.55;6.05;;;;;;;;;;10332451;28;20470;-47
2022/11/18 18:16:54;;;;;;;8.05;5.63;;;;;;;;;;10331940;28;20034;-48
2022/11/18 18:21:55;;;;;;;7.10;5.35;;;;;;;;;;10330096;28;20054;-47
2022/11/18 18:26:56;;;;;;;8.10;6.20;;;;;;;;;;10331205;28;20225;-49
2022/11/18 18:31:57;;;;;;;7.25;6.00;;;;;;;;;;10328564;28;20057;-52
2022/11/18 18:36:57;;;;;;;10.75;6.35;;;;;;;;;;10329780;28;20030;-51
2022/11/18 18:41:59;;;;;;;8.10;6.50;;;;;;;;;;10328484;28;20058;-54
2022/11/18 18:47:00;;;;;;;7.78;6.25;;;;;;;;;;10330144;28;20030;-51
2022/11/18 18:52:01;;;;;;;13.57;5.82;;;;;;;;;;10329756;28;20057;-48
2022/11/18 18:57:01;;;;;;;7.93;5.85;;;;;;;;;;10330148;28;20037;-50
2022/11/18 19:02:03;;;;;;;7.15;5.70;;;;;;;;;;10328639;28;20022;-50
2022/11/18 19:07:03;;;;;;;8.18;6.32;;;;;;;;;;10328358;28;20026;-48
2022/11/18 19:17:24;;;;;;;10.13;6.10;;;;;;;;;;10329573;28;20038;-51
2022/11/18 19:22:27;;;;;;;8.48;6.15;;;;;;;;;;10329197;28;20030;-49
2022/11/18 19:27:28;;;;;;;9.20;6.60;;;;;;;;;;10328884;28;20418;-46
2022/11/18 19:32:29;;;;;;;7.60;6.18;;;;;;;;;;10327911;28;20070;-48
2022/11/18 19:37:31;;;;;;;12.95;6.82;;;;;;;;;;10328303;28;20026;-47
2022/11/18 19:42:31;;;;;;;8.68;6.47;;;;;;;;;;10327800;28;20363;-47
2022/11/18 19:47:32;;;;;;;8.88;6.28;;;;;;;;;;10327541;28;20032;-48
2022/11/18 19:52:33;;;;;;;10.07;7.35;;;;;;;;;;10327478;28;20042;-50
2022/11/18 19:57:33;;;;;;;9.68;7.30;;;;;;;;;;10328968;28;20072;-46
2022/11/18 20:02:35;;;;;;;9.73;7.47;;;;;;;;;;10328020;28;20390;-46
2022/11/18 20:07:36;;;;;;;8.93;6.97;;;;;;;;;;10326333;28;20411;-49
2022/11/18 20:12:37;;;;;;;10.70;7.75;;;;;;;;;;10324858;28;20022;-47
2022/11/18 20:17:37;;;;;;;10.75;8.15;;;;;;;;;;10327671;28;20022;-48
2022/11/18 20:22:38;;;;;;;10.77;7.32;;;;;;;;;;10326162;28;20022;-45
2022/11/18 20:27:38;;;;;;;11.48;7.90;;;;;;;;;;10323766;28;20045;-46
2022/11/18 20:32:39;;;;;;;10.32;7.57;;;;;;;;;;10322105;28;20077;-47
2022/11/18 20:37:44;;;;;;;12.23;7.70;;;;;;;;;;10327302;28;20022;-49
2022/11/18 20:48:04;;;;;;;12.23;7.32;;;;;;;;;;10326717;28;20396;-47
2022/11/18 20:53:05;;;;;;;11.52;7.47;;;;;;;;;;10326949;28;20031;-45
2022/11/18 20:58:06;;;;;;;10.73;7.53;;;;;;;;;;10326059;28;20027;-48
2022/11/18 21:03:11;;;;;;;9.93;6.95;;;;;;;;;;10331077;28;20035;-47
2022/11/18 21:08:11;;;;;;;10.95;7.60;;;;;;;;;;10335526;28;20064;-46
2022/11/18 21:18:31;;;;;;;10.57;7.40;;;;;;;;;;10335108;28;20027;-46
2022/11/18 21:23:32;;;;;;;9.52;7.13;;;;;;;;;;10334435;28;20042;-50
2022/11/18 21:28:32;;;;;;;10.93;7.88;;;;;;;;;;10334222;28;20034;-46
2022/11/18 21:33:33;;;;;;;9.07;6.68;;;;;;;;;;10334580;28;20397;-45
2022/11/18 21:38:33;;;;;;;10.52;7.90;;;;;;;;;;10334879;28;20037;-50
2022/11/18 21:43:36;;;;;;;11.18;6.90;;;;;;;;;;10334778;28;20034;-46
2022/11/18 21:48:37;;;;;;;11.32;7.82;;;;;;;;;;10333691;28;20030;-44
2022/11/18 21:53:38;;;;;;;13.38;7.78;;;;;;;;;;10333293;28;20041;-47
2022/11/18 21:58:39;;;;;;;12.48;8.27;;;;;;;;;;10333189;28;20027;-46
2022/11/18 22:03:42;;;;;;;10.55;8.07;;;;;;;;;;10333064;28;20092;-46
2022/11/18 22:08:44;;;;;;;9.63;7.18;;;;;;;;;;10332752;28;20035;-47
2022/11/18 22:13:44;;;;;;;11.55;7.30;;;;;;;;;;10333027;28;20080;-49
2022/11/18 22:18:47;;;;;;;9.90;8.00;;;;;;;;;;10332712;28;20034;-47
2022/11/18 22:23:48;;;;;;;9.43;7.45;;;;;;;;;;10331998;28;20433;-45
2022/11/18 22:28:53;;;;;;;11.45;8.13;;;;;;;;;;10331426;28;20081;-46
2022/11/18 22:33:55;;;;;;;10.65;6.70;;;;;;;;;;10329197;28;20062;-53
2022/11/18 22:38:56;;;;;;;12.35;7.38;;;;;;;;;;10330622;28;20257;-50
2022/11/18 22:43:56;;;;;;;12.77;6.90;;;;;;;;;;10330376;28;20261;-51
2022/11/18 22:48:58;;;;;;;10.30;7.53;;;;;;;;;;10330960;28;20114;-48
2022/11/18 22:53:59;;;;;;;10.95;7.38;;;;;;;;;;10330675;28;20124;-48
2022/11/18 22:59:00;;;;;;;8.35;7.07;;;;;;;;;;10331320;28;20026;-48
2022/11/18 23:04:00;;;;;;;9.35;7.00;;;;;;;;;;10330472;28;20047;-48
2022/11/18 23:09:02;;;;;;;8.85;6.68;;;;;;;;;;10330332;28;20182;-46
2022/11/18 23:14:08;;;;;;;8.02;6.70;;;;;;;;;;10329479;28;20041;-50
2022/11/18 23:19:13;;;;;;;14.35;7.03;;;;;;;;;;10328079;28;20030;-47
2022/11/18 23:24:17;;;;;;;9.80;7.07;;;;;;;;;;10329227;28;20050;-47
2022/11/18 23:29:18;;;;;;;8.43;6.32;;;;;;;;;;10326740;28;20042;-47
2022/11/18 23:34:19;;;;;;;8.25;6.30;;;;;;;;;;10329361;28;20041;-49
2022/11/18 23:39:20;;;;;;;7.05;6.35;;;;;;;;;;10328640;28;20034;-48
2022/11/18 23:44:43;;;;;;;8.77;6.53;;;;;;;;;;10328430;28;20026;-51
2022/11/18 23:49:41;;;;;;;7.65;6.32;;;;;;;;;;10328878;28;20379;-46
2022/11/18 23:54:41;;;;;;;7.15;5.97;;;;;;;;;;10328975;28;20092;-48
2022/11/18 23:59:42;;;;;;;8.77;6.78;;;;;;;;;;10328343;28;20038;-48
